Inzener Veshnyakov — UBDJ3 — position and weather

sailwx.info

Track history (hours):
 
Tides and Currents Weather Stations Pressure Air Temp Water Temp Dewpoint Dewpoint Depression Visibility Wind Speed Wind Dir Waves Ship Positions

Inzener Veshnyakov

Last reported at 2018-Feb-07 01:30 UTC. Time now 2018-Feb-19 17:56 UTC.
Position N 31°13' E 029°44'.
Warning: this ship's position is 12 days out of date.

Length 131 m; draft 7.6 m.

Type: Cargo ship. MMSI: 273354480.

Date/timePositionNaut miles runAvg speedWind from/ knotsBaromVisibWave heightAir tempDewpointWater temp
2018-Feb-07 01:30N 31°13' E 029°44'  
2018-Feb-04 06:38N 35°48' E 014°47'211.7
2018-Feb-04 06:29N 35°48' E 014°44'511.2
2018-Feb-04 06:00N 35°50' E 014°38'4 0.4
2018-Feb-03 18:30N 35°54' E 014°37'612.0
2018-Feb-03 18:00N 35°59' E 014°33'812.4
2018-Feb-03 17:23N 36°04' E 014°26'511.6
2018-Feb-03 16:59N 36°07' E 014°22'1211.8
2018-Feb-03 16:00N 36°12' E 014°09'612.1
2018-Feb-03 15:30N 36°15' E 014°02'811.9
2018-Feb-03 14:50N 36°18' E 013°53'7311.9
2018-Feb-03 08:40N 36°50' E 012°31'211.4
2018-Feb-03 08:30N 36°51' E 012°29'611.6
2018-Feb-03 08:01N 36°53' E 012°23'  
2018-Jan-31 04:55N 36°00' W 005°13'3 8.4
2018-Jan-31 04:30N 35°60' W 005°17'4 8.5
2018-Jan-31 04:00N 35°59' W 005°22'4 8.3
2018-Jan-31 03:30N 35°57' W 005°27'228 6.3
2018-Jan-29 15:31N 37°32' W 009°46'012.4
2018-Jan-29 15:30N 37°32' W 009°46'3312.1
2018-Jan-29 12:48N 38°04' W 009°56'712.3
2018-Jan-29 12:15N 38°11' W 009°58'311.7
2018-Jan-29 11:59N 38°14' W 009°59'611.9
2018-Jan-29 11:28N 38°20' W 010°00'511.8
2018-Jan-29 11:00N 38°25' W 010°02'612.1
2018-Jan-29 10:29N 38°31' W 010°04'812.4
2018-Jan-29 09:52N 38°39' W 010°06'512.5
2018-Jan-29 09:29N 38°44' W 010°06'612.4
2018-Jan-29 09:00N 38°50' W 010°06'612.3
2018-Jan-29 08:30N 38°56' W 010°06'612.3
2018-Jan-29 08:00N 39°02' W 010°06'812.3
2018-Jan-29 07:23N 39°10' W 010°06'  
Track history (hours):
 
Tides and Currents Weather Stations Pressure Air Temp Water Temp Dewpoint Dewpoint Depression Visibility Wind Speed Wind Dir Waves Ship Positions

Inzener Veshnyakov

Last reported at 2018-Feb-07 01:30 UTC. Time now 2018-Feb-19 17:56 UTC.
Position N 31°13' E 029°44'.
Warning: this ship's position is 12 days out of date.

Length 131 m; draft 7.6 m.

Type: Cargo ship. MMSI: 273354480.

Date/timePositionNaut miles runAvg speedWind from/ knotsBaromVisibWave heightAir tempDewpointWater temp
2018-Feb-07 01:30N 31°13' E 029°44'  
2018-Feb-04 06:38N 35°48' E 014°47'211.7
2018-Feb-04 06:29N 35°48' E 014°44'511.2
2018-Feb-04 06:00N 35°50' E 014°38'4 0.4
2018-Feb-03 18:30N 35°54' E 014°37'612.0
2018-Feb-03 18:00N 35°59' E 014°33'812.4
2018-Feb-03 17:23N 36°04' E 014°26'511.6
2018-Feb-03 16:59N 36°07' E 014°22'1211.8
2018-Feb-03 16:00N 36°12' E 014°09'612.1
2018-Feb-03 15:30N 36°15' E 014°02'811.9
2018-Feb-03 14:50N 36°18' E 013°53'7311.9
2018-Feb-03 08:40N 36°50' E 012°31'211.4
2018-Feb-03 08:30N 36°51' E 012°29'611.6
2018-Feb-03 08:01N 36°53' E 012°23'  
2018-Jan-31 04:55N 36°00' W 005°13'3 8.4
2018-Jan-31 04:30N 35°60' W 005°17'4 8.5
2018-Jan-31 04:00N 35°59' W 005°22'4 8.3
2018-Jan-31 03:30N 35°57' W 005°27'228 6.3
2018-Jan-29 15:31N 37°32' W 009°46'012.4
2018-Jan-29 15:30N 37°32' W 009°46'3312.1
2018-Jan-29 12:48N 38°04' W 009°56'712.3
2018-Jan-29 12:15N 38°11' W 009°58'311.7
2018-Jan-29 11:59N 38°14' W 009°59'611.9
2018-Jan-29 11:28N 38°20' W 010°00'511.8
2018-Jan-29 11:00N 38°25' W 010°02'612.1
2018-Jan-29 10:29N 38°31' W 010°04'812.4
2018-Jan-29 09:52N 38°39' W 010°06'512.5
2018-Jan-29 09:29N 38°44' W 010°06'612.4
2018-Jan-29 09:00N 38°50' W 010°06'612.3
2018-Jan-29 08:30N 38°56' W 010°06'612.3
2018-Jan-29 08:00N 39°02' W 010°06'812.3
2018-Jan-29 07:23N 39°10' W 010°06'  

Dump ship's entire track history